Time;durP1;ratioP1;P1;durP2;ratioP2;P2;SDS_P1;SDS_P2;PMS_P1;PMS_P2;Temp;Humidity;BMP_temperature;BMP_pressure;BME280_temperature;BME280_humidity;BME280_pressure;Samples;Min_cycle;Max_cycle;Signal;HPM_P1;HPM_P2
2022/03/14 00:00:49;;;;;;;284.43;157.07;;;;;;;2.62;40.67;99318.44;6288459;22;20023;-88
2022/03/14 00:03:15;;;;;;;276.00;154.00;;;;;;;2.55;40.36;99316.56;6288182;22;20008;-83
2022/03/14 00:05:41;;;;;;;291.80;152.20;;;;;;;2.55;40.43;99328.38;6316301;22;20011;-84
2022/03/14 00:08:07;;;;;;;295.37;156.80;;;;;;;2.52;40.69;99313.13;6316693;22;19999;-86
2022/03/14 00:10:34;;;;;;;295.93;152.67;;;;;;;2.40;40.85;99315.34;6317337;22;20609;-84
2022/03/14 00:13:00;;;;;;;298.60;160.87;;;;;;;2.29;41.30;99303.28;6316464;22;20007;-84
2022/03/14 00:15:33;;;;;;;294.83;156.53;;;;;;;2.48;41.41;99312.19;6288771;22;20006;-85
2022/03/14 00:18:02;;;;;;;300.53;151.00;;;;;;;2.52;41.19;99313.97;6314288;22;20370;-85
2022/03/14 00:20:29;;;;;;;299.27;156.00;;;;;;;2.62;41.52;99300.72;6313381;22;20022;-83
2022/03/14 00:22:57;;;;;;;305.80;154.00;;;;;;;2.52;41.38;99291.19;6287073;22;20405;-85
2022/03/14 00:25:23;;;;;;;305.93;148.03;;;;;;;2.73;41.31;99311.94;6314482;22;20053;-85
2022/03/14 00:27:48;;;;;;;309.97;152.43;;;;;;;2.68;41.66;99303.38;6315162;22;20011;-85
2022/03/14 00:30:15;;;;;;;313.77;157.03;;;;;;;2.80;41.28;99297.72;6316488;22;20000;-86
2022/03/14 00:32:41;;;;;;;305.47;148.93;;;;;;;2.86;41.16;99304.63;6288018;22;20115;-86
2022/03/14 00:35:08;;;;;;;302.87;155.50;;;;;;;2.79;41.39;99295.19;6315407;22;20007;-85
2022/03/14 00:37:35;;;;;;;292.37;158.10;;;;;;;2.78;41.82;99304.47;6315577;22;19999;-85
2022/03/14 00:40:02;;;;;;;303.47;158.33;;;;;;;2.92;41.11;99297.19;6317413;22;20007;-85
2022/03/14 00:42:28;;;;;;;301.80;153.40;;;;;;;2.87;41.79;99301.28;6319211;22;20000;-85
2022/03/14 00:44:54;;;;;;;304.23;160.07;;;;;;;2.70;41.47;99296.69;6321811;22;20007;-85
2022/03/14 00:47:21;;;;;;;293.67;153.60;;;;;;;2.75;41.49;99306.94;6325796;22;20067;-85
2022/03/14 00:49:47;;;;;;;298.73;156.27;;;;;;;2.69;41.60;99297.50;6300994;22;20496;-85
2022/03/14 00:52:13;;;;;;;296.63;158.83;;;;;;;2.64;41.93;99306.66;6300669;22;20013;-85
2022/03/14 00:54:38;;;;;;;303.30;157.00;;;;;;;2.55;41.68;99306.44;6324078;22;20011;-85
2022/03/14 00:57:04;;;;;;;309.37;151.93;;;;;;;2.41;42.20;99285.03;6321519;22;20058;-85
2022/03/14 00:59:30;;;;;;;304.80;153.87;;;;;;;2.47;41.73;99297.81;6324533;22;20007;-85
2022/03/14 01:01:55;;;;;;;316.77;148.17;;;;;;;2.46;41.18;99313.81;6319876;22;20056;-85
2022/03/14 01:04:21;;;;;;;335.60;153.97;;;;;;;2.43;41.54;99305.31;6319060;22;20007;-85
2022/03/14 01:06:47;;;;;;;333.83;155.53;;;;;;;2.42;41.69;99313.75;6317017;22;20074;-86
2022/03/14 01:09:14;;;;;;;344.00;149.13;;;;;;;2.47;41.35;99310.47;6317238;22;20082;-85
2022/03/14 01:11:43;;;;;;;333.80;153.07;;;;;;;2.34;41.20;99312.66;6304220;22;20011;-85
2022/03/14 01:14:09;;;;;;;322.53;150.33;;;;;;;2.11;41.01;99307.91;6331453;22;19995;-84
2022/03/14 01:16:35;;;;;;;305.10;150.53;;;;;;;2.01;40.99;99322.81;6319801;22;20021;-85
2022/03/14 01:19:00;;;;;;;305.77;148.53;;;;;;;1.63;41.53;99317.59;6329001;22;19987;-86
2022/03/14 01:21:28;;;;;;;298.50;143.70;;;;;;;1.53;41.76;99328.25;6329348;22;20006;-84
2022/03/14 01:23:53;;;;;;;316.43;144.77;;;;;;;1.32;41.80;99325.13;6294828;22;20034;-85
2022/03/14 01:26:19;;;;;;;320.40;139.03;;;;;;;1.21;41.78;99322.28;6294139;22;20434;-86
2022/03/14 01:28:45;;;;;;;313.77;138.27;;;;;;;1.17;42.07;99329.75;6293413;22;19999;-86
2022/03/14 01:31:10;;;;;;;337.33;139.13;;;;;;;1.04;42.69;99327.66;6287323;22;20000;-86
2022/03/14 01:33:36;;;;;;;340.53;137.50;;;;;;;0.71;42.77;99297.22;6283931;22;20338;-85
2022/03/14 01:36:01;;;;;;;342.37;137.97;;;;;;;0.64;42.83;99295.31;6284871;22;20003;-86
2022/03/14 01:38:27;;;;;;;374.50;137.87;;;;;;;0.65;43.78;99322.25;6284946;22;20453;-86
2022/03/14 01:40:52;;;;;;;379.70;135.73;;;;;;;0.72;43.75;99311.56;6286059;22;20337;-86
2022/03/14 01:43:19;;;;;;;377.67;134.93;;;;;;;0.58;43.67;99308.59;6283154;22;20008;-87
2022/03/14 01:45:46;;;;;;;373.80;135.87;;;;;;;0.61;43.27;99313.75;6281110;22;20408;-84
2022/03/14 01:48:12;;;;;;;382.27;132.53;;;;;;;0.55;44.00;99308.53;6281915;22;20019;-86
2022/03/14 01:50:38;;;;;;;390.23;132.37;;;;;;;0.48;44.22;99311.63;6282592;22;20000;-85
2022/03/14 01:53:03;;;;;;;396.93;132.17;;;;;;;0.36;44.75;99321.34;6280851;22;20027;-85
2022/03/14 01:55:29;;;;;;;381.77;128.33;;;;;;;0.18;44.74;99300.56;6280687;22;20027;-85
2022/03/14 01:57:56;;;;;;;388.83;128.53;;;;;;;0.19;45.22;99294.72;6288764;22;20011;-83
2022/03/14 02:00:21;;;;;;;411.77;129.50;;;;;;;0.19;45.28;99305.66;6283830;22;20019;-83
2022/03/14 02:02:47;;;;;;;421.90;129.47;;;;;;;0.13;45.43;99297.88;6279275;22;20553;-85
2022/03/14 02:05:14;;;;;;;421.20;127.03;;;;;;;0.10;45.68;99309.53;6279320;22;20012;-84
2022/03/14 02:07:40;;;;;;;430.97;129.30;;;;;;;-0.03;46.10;99303.25;6280564;22;20290;-85
2022/03/14 02:10:06;;;;;;;432.07;127.10;;;;;;;-0.15;46.68;99303.69;6280749;22;20688;-84
2022/03/14 02:12:33;;;;;;;430.00;130.03;;;;;;;-0.35;47.35;99294.59;6281107;22;20045;-85
2022/03/14 02:14:58;;;;;;;429.43;125.83;;;;;;;-0.10;47.16;99318.97;6282584;22;20250;-85
2022/03/14 02:17:23;;;;;;;418.57;125.47;;;;;;;-0.15;47.67;99320.47;6280526;22;20226;-84
2022/03/14 02:19:51;;;;;;;418.37;127.70;;;;;;;-0.30;47.94;99307.34;6279648;22;20330;-85
2022/03/14 02:22:17;;;;;;;431.50;122.90;;;;;;;-0.33;48.21;99304.72;6278216;22;20000;-85
2022/03/14 02:24:45;;;;;;;430.57;123.27;;;;;;;-0.35;49.19;99313.88;6301778;22;20245;-85
2022/03/14 02:27:12;;;;;;;423.93;124.87;;;;;;;-0.32;49.29;99316.50;6311330;22;20224;-85
2022/03/14 02:29:39;;;;;;;420.43;121.47;;;;;;;-0.30;49.53;99327.50;6311192;22;20226;-85
2022/03/14 02:32:05;;;;;;;434.00;124.03;;;;;;;-0.44;49.76;99306.00;6310935;22;20266;-85
2022/03/14 02:34:32;;;;;;;426.10;124.50;;;;;;;-0.48;49.75;99313.47;6310704;22;20221;-86
2022/03/14 02:36:57;;;;;;;433.43;122.17;;;;;;;-0.43;49.96;99317.81;6311184;22;20241;-85
2022/03/14 02:39:23;;;;;;;428.13;124.10;;;;;;;-0.35;49.81;99327.34;6313644;22;20226;-85
2022/03/14 02:41:48;;;;;;;413.17;121.00;;;;;;;-0.37;50.20;99328.94;6315921;22;20007;-85
2022/03/14 02:44:14;;;;;;;425.97;124.53;;;;;;;-0.30;49.92;99338.44;6313318;22;20007;-85
2022/03/14 02:46:40;;;;;;;431.63;124.17;;;;;;;-0.34;50.18;99331.56;6313407;22;20020;-83
2022/03/14 02:49:10;;;;;;;422.53;122.13;;;;;;;-0.38;50.39;99329.72;6313821;22;20007;-83
2022/03/14 02:51:39;;;;;;;427.23;123.57;;;;;;;-0.28;49.92;99329.25;6312574;22;20014;-85
2022/03/14 02:54:06;;;;;;;421.30;121.27;;;;;;;-0.27;50.74;99323.44;6328151;22;20218;-86
2022/03/14 02:56:39;;;;;;;417.90;122.60;;;;;;;-0.29;50.56;99340.13;6334648;22;20246;-85
2022/03/14 02:59:06;;;;;;;414.97;121.37;;;;;;;-0.39;50.66;99328.03;6334242;22;20233;-84
2022/03/14 03:01:33;;;;;;;403.80;120.47;;;;;;;-0.31;50.96;99324.13;6315420;22;20214;-85
2022/03/14 03:03:58;;;;;;;398.53;120.03;;;;;;;-0.19;51.63;99341.31;6308921;22;20218;-82
2022/03/14 03:06:24;;;;;;;384.93;120.27;;;;;;;-0.23;51.64;99347.06;6308573;22;20240;-85
2022/03/14 03:08:50;;;;;;;437.67;117.17;;;;;;;-0.23;51.48;99331.94;6311177;22;20082;-82
2022/03/14 03:11:16;;;;;;;436.70;120.33;;;;;;;-0.17;51.13;99340.56;6310926;22;19999;-86
2022/03/14 03:13:43;;;;;;;433.67;123.50;;;;;;;-0.12;51.24;99318.91;6310443;22;20300;-82
2022/03/14 03:16:09;;;;;;;430.97;123.37;;;;;;;-0.19;51.44;99324.53;6284709;22;20253;-86
2022/03/14 03:18:38;;;;;;;435.77;123.33;;;;;;;-0.18;51.65;99338.88;6312364;22;20228;-84
2022/03/14 03:21:03;;;;;;;434.20;124.53;;;;;;;-0.09;51.46;99346.75;6312106;22;20003;-85
2022/03/14 03:23:30;;;;;;;431.97;123.17;;;;;;;-0.06;50.89;99345.97;6312738;22;20246;-86
2022/03/14 03:25:55;;;;;;;439.03;124.90;;;;;;;-0.14;51.17;99339.81;6286560;22;20015;-85
2022/03/14 03:28:21;;;;;;;436.37;123.83;;;;;;;-0.20;51.38;99349.69;6316803;22;20222;-84
2022/03/14 03:30:47;;;;;;;434.03;123.60;;;;;;;-0.08;51.24;99350.97;6317214;22;20018;-86
2022/03/14 03:33:12;;;;;;;436.67;124.17;;;;;;;0.00;51.51;99354.59;6317574;22;20033;-85
2022/03/14 03:35:38;;;;;;;435.27;124.80;;;;;;;-0.04;51.06;99357.81;6289671;22;20019;-85
2022/03/14 03:38:04;;;;;;;435.10;125.57;;;;;;;-0.07;51.79;99366.94;6317909;22;20003;-85
2022/03/14 03:40:30;;;;;;;439.73;125.87;;;;;;;-0.13;51.97;99361.72;6316423;22;20569;-85
2022/03/14 03:42:55;;;;;;;432.27;126.47;;;;;;;-0.08;52.07;99388.75;6316743;22;20011;-85
2022/03/14 03:45:20;;;;;;;431.03;124.93;;;;;;;-0.04;52.41;99400.66;6316268;22;20010;-83
2022/03/14 03:47:46;;;;;;;434.90;123.33;;;;;;;0.04;52.15;99408.50;6315634;22;20007;-85
2022/03/14 03:50:12;;;;;;;436.30;126.63;;;;;;;0.07;52.33;99410.28;6313892;22;20003;-85
2022/03/14 03:52:38;;;;;;;436.70;125.63;;;;;;;0.02;52.47;99405.06;6286614;22;20002;-86
2022/03/14 03:55:04;;;;;;;434.40;124.80;;;;;;;-0.11;52.79;99415.50;6312843;22;20011;-85
2022/03/14 03:57:30;;;;;;;436.87;125.17;;;;;;;-0.21;52.67;99410.97;6311054;22;20041;-85
2022/03/14 03:59:56;;;;;;;440.00;126.30;;;;;;;-0.22;53.56;99424.38;6312484;22;20321;-85
2022/03/14 04:02:22;;;;;;;435.50;125.83;;;;;;;-0.27;53.60;99424.19;6312302;22;20241;-86
2022/03/14 04:04:49;;;;;;;436.47;126.67;;;;;;;-0.34;53.30;99413.84;6312956;22;20008;-83
2022/03/14 04:07:16;;;;;;;426.83;123.80;;;;;;;-0.21;53.53;99429.44;6285220;22;20238;-83
2022/03/14 04:09:41;;;;;;;428.67;124.53;;;;;;;-0.15;53.41;99423.78;6314181;22;20226;-84
2022/03/14 04:12:07;;;;;;;431.57;124.03;;;;;;;-0.18;53.72;99429.56;6314230;22;20260;-84
2022/03/14 04:14:33;;;;;;;430.63;122.50;;;;;;;-0.23;53.76;99432.72;6315141;22;19999;-83
2022/03/14 04:17:01;;;;;;;432.10;123.40;;;;;;;-0.29;54.31;99425.78;6315501;22;20337;-84
2022/03/14 04:19:29;;;;;;;428.90;121.57;;;;;;;-0.38;55.20;99435.53;6316186;22;20029;-85
2022/03/14 04:21:55;;;;;;;430.27;123.50;;;;;;;-0.26;55.83;99450.25;6316343;22;20258;-83
2022/03/14 04:24:21;;;;;;;435.57;123.70;;;;;;;-0.39;56.13;99451.47;6315350;22;20245;-83
2022/03/14 04:26:47;;;;;;;429.83;122.63;;;;;;;-0.48;56.63;99433.47;6315253;22;20003;-82
2022/03/14 04:29:12;;;;;;;439.63;123.77;;;;;;;-0.41;56.70;99448.00;6316110;22;19999;-83
2022/03/14 04:31:39;;;;;;;434.80;115.93;;;;;;;-0.48;57.73;99433.47;6314959;22;20244;-85
2022/03/14 04:34:05;;;;;;;442.53;122.37;;;;;;;-0.47;58.10;99458.69;6316770;22;20059;-84
2022/03/14 04:36:30;;;;;;;441.47;120.80;;;;;;;-0.59;58.23;99459.91;6315333;22;20249;-83
2022/03/14 04:38:56;;;;;;;427.83;120.30;;;;;;;-0.61;59.63;99454.81;6317686;22;20003;-83
2022/03/14 04:41:21;;;;;;;427.33;122.17;;;;;;;-0.65;59.94;99449.63;6332777;22;20014;-85
2022/03/14 04:43:46;;;;;;;425.30;121.40;;;;;;;-0.65;60.60;99455.50;6304579;22;20048;-85
2022/03/14 04:46:12;;;;;;;424.97;120.40;;;;;;;-0.57;60.77;99464.22;6316140;22;20003;-85
2022/03/14 04:48:37;;;;;;;429.40;123.07;;;;;;;-0.62;61.68;99449.72;6316669;22;19999;-85
2022/03/14 04:51:04;;;;;;;438.10;119.67;;;;;;;-0.51;61.82;99459.38;6312920;22;20003;-84
2022/03/14 04:53:30;;;;;;;436.20;118.77;;;;;;;-0.58;62.36;99446.50;6313522;22;19999;-84
2022/03/14 04:55:55;;;;;;;436.47;119.40;;;;;;;-0.62;62.88;99459.78;6313470;22;20241;-84
2022/03/14 04:58:21;;;;;;;436.70;120.13;;;;;;;-0.67;63.58;99467.16;6313563;22;20075;-84
2022/03/14 05:00:47;;;;;;;436.47;120.17;;;;;;;-0.78;64.13;99465.91;6322069;22;20007;-85
2022/03/14 05:03:13;;;;;;;437.90;118.50;;;;;;;-0.87;65.28;99463.03;6323300;22;19999;-85
2022/03/14 05:05:39;;;;;;;438.33;121.33;;;;;;;-0.88;65.87;99466.31;6295554;22;20280;-83
2022/03/14 05:08:05;;;;;;;438.43;119.53;;;;;;;-0.92;66.68;99479.59;6318073;22;20209;-84
2022/03/14 05:10:31;;;;;;;439.27;119.60;;;;;;;-0.93;66.91;99482.91;6325032;22;19998;-85
2022/03/14 05:13:01;;;;;;;441.10;118.03;;;;;;;-1.10;68.05;99477.19;6322915;22;20300;-84
2022/03/14 05:15:27;;;;;;;439.43;117.07;;;;;;;-1.00;67.26;99491.88;6317841;22;20003;-85
2022/03/14 05:17:53;;;;;;;438.80;117.70;;;;;;;-1.06;66.92;99495.81;6316222;22;20225;-83
2022/03/14 05:20:19;;;;;;;436.53;117.87;;;;;;;-1.21;67.63;99480.06;6289520;22;20237;-85
2022/03/14 05:22:49;;;;;;;437.43;117.73;;;;;;;-1.27;67.79;99493.25;6315370;22;20225;-82
2022/03/14 05:25:22;;;;;;;435.30;116.83;;;;;;;-1.16;66.22;99511.31;6286764;22;20015;-83
2022/03/14 05:27:48;;;;;;;432.13;115.17;;;;;;;-1.27;65.69;99508.34;6314066;22;20249;-85
2022/03/14 05:30:15;;;;;;;438.97;125.27;;;;;;;-1.22;65.34;99504.38;6321494;22;20238;-81
2022/03/14 05:32:42;;;;;;;438.30;124.73;;;;;;;-1.28;66.39;99506.66;6318117;22;20222;-82
2022/03/14 05:35:08;;;;;;;444.33;122.77;;;;;;;-1.33;67.14;99509.75;6316717;22;20263;-83
2022/03/14 05:38:08;;;;;;;444.43;124.27;;;;;;;-1.33;67.87;99513.13;6290350;22;20238;-83
2022/03/14 05:40:34;;;;;;;440.43;118.80;;;;;;;-1.37;68.74;99511.28;6319955;22;20283;-83
2022/03/14 05:43:05;;;;;;;438.20;117.77;;;;;;;-1.35;68.67;99517.22;6316338;22;20214;-83
2022/03/14 05:45:31;;;;;;;434.03;115.90;;;;;;;-1.29;69.27;99527.56;6322141;22;19991;-82
2022/03/14 05:47:56;;;;;;;434.17;116.70;;;;;;;-1.28;69.60;99528.41;6328540;22;20270;-85
2022/03/14 05:50:24;;;;;;;439.73;117.90;;;;;;;-1.10;69.72;99537.56;6324772;22;20008;-82
2022/03/14 05:52:50;;;;;;;437.40;114.80;;;;;;;-0.95;70.17;99534.84;6323799;22;20018;-83
2022/03/14 05:55:15;;;;;;;437.47;116.57;;;;;;;-0.79;70.73;99546.38;6323503;22;20272;-82
2022/03/14 05:57:41;;;;;;;438.17;116.93;;;;;;;-0.74;69.95;99529.81;6322125;22;20218;-83
2022/03/14 06:00:08;;;;;;;435.23;119.00;;;;;;;-0.52;69.21;99545.84;6321299;22;20014;-85
2022/03/14 06:02:36;;;;;;;434.67;120.93;;;;;;;-0.27;67.85;99545.13;6294278;22;20026;-83
2022/03/14 06:05:02;;;;;;;436.60;120.87;;;;;;;-0.10;66.35;99544.09;6290070;22;20537;-84
2022/03/14 06:07:27;;;;;;;433.53;121.10;;;;;;;0.02;65.13;99547.88;6317321;22;20241;-82
2022/03/14 06:09:53;;;;;;;438.80;125.53;;;;;;;0.08;64.13;99548.97;6317983;22;20541;-82
2022/03/14 06:12:29;;;;;;;435.73;125.43;;;;;;;0.35;62.38;99549.97;6319423;22;20007;-85
2022/03/14 06:14:59;;;;;;;435.40;124.57;;;;;;;0.40;61.50;99566.13;6288090;22;20351;-84
2022/03/14 06:17:25;;;;;;;438.37;126.90;;;;;;;0.54;61.47;99569.16;6289144;22;20230;-85
2022/03/14 06:19:52;;;;;;;440.80;126.83;;;;;;;0.58;60.95;99568.44;6315346;22;20536;-83
2022/03/14 06:22:18;;;;;;;441.47;128.80;;;;;;;0.73;60.47;99581.59;6286818;22;20388;-82
2022/03/14 06:24:47;;;;;;;439.20;128.53;;;;;;;0.80;61.16;99588.59;6315628;22;20258;-83
2022/03/14 06:27:14;;;;;;;442.53;133.30;;;;;;;0.88;60.15;99583.78;6315718;22;20214;-85
2022/03/14 06:29:40;;;;;;;442.37;133.23;;;;;;;1.03;60.15;99596.06;6314731;22;20222;-84
2022/03/14 06:32:06;;;;;;;453.07;132.37;;;;;;;1.12;59.40;99606.47;6316323;22;20218;-85
2022/03/14 06:34:31;;;;;;;441.87;136.43;;;;;;;1.14;59.27;99605.75;6315695;22;20026;-83
2022/03/14 06:36:57;;;;;;;444.57;140.67;;;;;;;1.28;58.68;99594.41;6314607;22;20003;-84
2022/03/14 06:39:22;;;;;;;449.50;140.80;;;;;;;1.51;58.41;99615.41;6314224;22;20010;-83
2022/03/14 06:41:48;;;;;;;446.20;140.53;;;;;;;1.64;57.92;99626.75;6313861;22;19999;-84
2022/03/14 06:44:14;;;;;;;421.87;142.43;;;;;;;1.60;58.39;99627.47;6314765;22;19999;-83
2022/03/14 06:46:40;;;;;;;411.10;142.57;;;;;;;1.70;57.69;99627.78;6289364;22;20011;-84
2022/03/14 06:49:06;;;;;;;400.60;144.43;;;;;;;1.90;57.57;99640.22;6318080;22;20010;-86
2022/03/14 06:51:32;;;;;;;418.67;146.03;;;;;;;2.00;56.77;99643.06;6319980;22;20003;-85
2022/03/14 06:53:58;;;;;;;414.30;151.37;;;;;;;2.12;57.01;99647.66;6319074;22;19987;-85
2022/03/14 06:56:23;;;;;;;405.83;148.57;;;;;;;2.18;56.96;99641.13;6320457;22;20073;-84
2022/03/14 06:58:49;;;;;;;415.07;157.20;;;;;;;2.35;56.37;99636.56;6319092;22;20732;-83
2022/03/14 07:01:14;;;;;;;414.00;155.17;;;;;;;2.47;55.57;99636.91;6320311;22;20015;-86
2022/03/14 07:03:40;;;;;;;411.50;156.47;;;;;;;2.64;56.22;99650.06;6323946;22;20006;-86
2022/03/14 07:06:05;;;;;;;418.90;158.30;;;;;;;2.82;55.33;99649.72;6328143;22;20011;-85
2022/03/14 07:08:30;;;;;;;417.57;161.97;;;;;;;2.72;55.36;99639.34;6314740;22;20003;-83
2022/03/14 07:10:58;;;;;;;411.70;162.93;;;;;;;2.96;55.51;99658.56;6314687;22;20007;-83
2022/03/14 07:13:24;;;;;;;410.23;168.83;;;;;;;3.06;54.90;99656.31;6314219;22;20003;-82
2022/03/14 07:15:50;;;;;;;394.50;169.00;;;;;;;3.23;54.50;99669.44;6311067;22;20559;-83
2022/03/14 07:18:15;;;;;;;396.43;170.77;;;;;;;3.26;54.47;99666.13;6312742;22;20050;-81
2022/03/14 07:20:41;;;;;;;395.23;170.23;;;;;;;3.32;54.86;99671.34;6313627;22;20003;-84
2022/03/14 07:23:07;;;;;;;387.87;173.57;;;;;;;3.41;55.31;99669.94;6312011;22;20082;-82
2022/03/14 07:25:37;;;;;;;391.60;176.07;;;;;;;3.68;54.84;99678.25;6310784;22;20089;-84
2022/03/14 07:28:05;;;;;;;389.37;177.30;;;;;;;3.85;54.83;99682.88;6312555;22;20061;-84
2022/03/14 07:30:30;;;;;;;394.73;177.40;;;;;;;3.89;54.99;99684.66;6285469;22;20082;-84
2022/03/14 07:32:56;;;;;;;407.30;187.77;;;;;;;3.76;54.60;99693.66;6284632;22;20045;-84
2022/03/14 07:35:23;;;;;;;394.03;187.47;;;;;;;4.00;54.42;99704.38;6312209;22;20063;-83
2022/03/14 07:37:49;;;;;;;397.30;192.23;;;;;;;4.13;54.89;99698.78;6286664;22;20007;-84
2022/03/14 07:40:15;;;;;;;383.80;192.50;;;;;;;4.43;54.41;99696.09;6312517;22;19999;-84
2022/03/14 07:42:43;;;;;;;388.43;197.43;;;;;;;4.47;54.74;99697.88;6311128;22;20007;-83
2022/03/14 07:45:10;;;;;;;387.60;205.70;;;;;;;4.59;54.40;99698.16;6309565;22;20318;-82
2022/03/14 07:47:36;;;;;;;403.63;205.70;;;;;;;4.84;53.42;99691.91;6311015;22;20405;-85
2022/03/14 07:50:03;;;;;;;396.97;211.97;;;;;;;5.00;52.73;99710.88;6312671;22;20029;-85
2022/03/14 07:52:28;;;;;;;402.87;212.07;;;;;;;5.02;52.97;99721.91;6313322;22;20050;-84
2022/03/14 07:54:55;;;;;;;408.03;219.70;;;;;;;5.11;52.93;99724.66;6283760;22;20003;-82
2022/03/14 07:57:20;;;;;;;425.80;229.67;;;;;;;5.11;53.79;99724.66;6312971;22;20011;-83
2022/03/14 07:59:46;;;;;;;411.10;230.60;;;;;;;5.39;52.89;99731.97;6283547;22;20014;-82
2022/03/14 08:02:13;;;;;;;418.10;230.17;;;;;;;5.56;52.31;99739.09;6307363;22;20199;-83
2022/03/14 08:04:40;;;;;;;419.97;236.07;;;;;;;5.69;51.70;99733.38;6281085;22;20019;-86
2022/03/14 08:07:06;;;;;;;410.97;236.00;;;;;;;5.77;51.46;99736.94;6310740;22;20003;-82
2022/03/14 08:09:32;;;;;;;413.67;242.37;;;;;;;5.81;52.35;99731.09;6310318;22;20045;-83
2022/03/14 08:11:59;;;;;;;408.57;240.03;;;;;;;5.98;51.02;99745.00;6307959;22;20611;-83
2022/03/14 08:14:26;;;;;;;413.20;243.10;;;;;;;5.95;51.08;99747.47;6281299;22;20094;-84
2022/03/14 08:16:51;;;;;;;414.23;247.33;;;;;;;6.20;50.73;99752.13;6306618;22;19999;-83
2022/03/14 08:19:16;;;;;;;414.63;260.13;;;;;;;6.24;50.10;99743.72;6308109;22;20014;-83
2022/03/14 08:21:42;;;;;;;410.37;262.93;;;;;;;6.49;49.57;99757.72;6310900;22;20027;-83
2022/03/14 08:24:22;;;;;;;403.17;260.93;;;;;;;6.47;49.46;99758.50;6309020;22;20015;-86
2022/03/14 08:26:47;;;;;;;396.33;254.67;;;;;;;6.58;49.39;99755.28;6308070;22;20007;-83
2022/03/14 08:29:12;;;;;;;406.00;274.57;;;;;;;6.67;49.32;99759.66;6309947;22;19999;-84
2022/03/14 08:31:38;;;;;;;422.23;276.97;;;;;;;6.85;49.21;99775.22;6308495;22;20030;-85
2022/03/14 08:34:04;;;;;;;410.77;269.83;;;;;;;6.88;48.46;99781.19;6308161;22;20068;-84
2022/03/14 08:36:31;;;;;;;407.60;265.93;;;;;;;6.95;48.59;99778.75;6310322;22;20010;-84
2022/03/14 08:38:56;;;;;;;400.40;279.63;;;;;;;6.94;48.43;99783.00;6309847;22;20418;-85
2022/03/14 08:41:24;;;;;;;400.57;275.50;;;;;;;7.06;48.17;99787.41;6308270;22;20014;-84
2022/03/14 08:43:50;;;;;;;405.53;278.07;;;;;;;7.07;48.26;99802.72;6310357;22;20816;-82
2022/03/14 08:46:15;;;;;;;412.27;281.77;;;;;;;7.00;48.02;99805.19;6309389;22;20007;-83
2022/03/14 08:48:41;;;;;;;412.83;283.07;;;;;;;7.09;48.24;99806.13;6309450;22;20279;-84
2022/03/14 08:51:07;;;;;;;413.27;290.00;;;;;;;7.22;48.00;99815.66;6309314;22;20011;-83
2022/03/14 08:53:33;;;;;;;385.43;284.67;;;;;;;7.42;48.81;99807.44;6308853;22;20071;-83
2022/03/14 08:56:02;;;;;;;400.73;299.27;;;;;;;7.58;49.24;99815.28;6308819;22;20007;-85
2022/03/14 08:58:29;;;;;;;413.23;306.07;;;;;;;7.77;48.19;99816.34;6308203;22;20081;-83
2022/03/14 09:00:55;;;;;;;408.57;315.17;;;;;;;7.98;48.39;99806.34;6305355;22;20010;-82
2022/03/14 09:03:21;;;;;;;401.13;314.53;;;;;;;8.10;48.39;99803.94;6305670;22;20003;-81
2022/03/14 09:05:46;;;;;;;410.97;321.43;;;;;;;8.73;49.20;99813.03;6302411;22;20064;-82
2022/03/14 09:08:12;;;;;;;402.30;328.97;;;;;;;8.63;45.90;99811.25;6304838;22;20007;-83
2022/03/14 09:10:38;;;;;;;381.00;333.07;;;;;;;8.54;46.39;99806.06;6291483;22;20030;-58
2022/03/14 09:13:04;;;;;;;407.43;332.77;;;;;;;8.52;45.15;99810.31;6265452;22;20440;-53
2022/03/14 09:15:30;;;;;;;422.57;348.53;;;;;;;8.48;45.29;99818.78;6267494;22;20098;-55
2022/03/14 09:17:59;;;;;;;428.53;334.90;;;;;;;8.59;46.41;99810.38;6264168;22;20011;-55
2022/03/14 09:20:26;;;;;;;495.97;321.07;;;;;;;8.82;45.72;99805.44;6264671;22;20014;-59
2022/03/14 09:22:52;;;;;;;488.63;295.87;;;;;;;8.91;45.26;99804.63;6264706;22;20007;-57
2022/03/14 09:25:19;;;;;;;485.77;298.53;;;;;;;9.16;45.21;99812.44;6264687;22;20087;-56
2022/03/14 09:27:45;;;;;;;486.90;309.13;;;;;;;9.10;43.95;99806.44;6263046;22;20003;-57
2022/03/14 09:30:12;;;;;;;496.60;330.50;;;;;;;9.37;45.37;99815.97;6264092;22;20035;-56
2022/03/14 09:32:38;;;;;;;504.60;347.17;;;;;;;9.33;44.69;99814.25;6262866;22;20137;-63
2022/03/14 09:35:07;;;;;;;510.47;360.20;;;;;;;9.43;45.69;99804.06;6266645;22;20089;-84
2022/03/14 09:37:34;;;;;;;511.13;364.67;;;;;;;9.68;44.95;99810.13;6278439;22;20221;-85
2022/03/14 09:42:29;;;;;;;509.73;372.90;;;;;;;10.41;43.60;99830.81;6268135;22;20023;-82
2022/03/14 09:44:57;;;;;;;511.60;382.60;;;;;;;10.30;43.33;99833.38;6271157;22;20485;-82
2022/03/14 09:47:23;;;;;;;516.07;395.40;;;;;;;10.10;42.69;99822.19;6274322;22;20004;-82
2022/03/14 09:49:54;;;;;;;513.90;398.57;;;;;;;10.17;43.45;99831.66;6271487;22;20405;-82
2022/03/14 09:52:20;;;;;;;516.03;418.73;;;;;;;10.41;43.67;99831.66;6269140;22;20505;-83
2022/03/14 09:54:46;;;;;;;517.00;427.07;;;;;;;10.32;42.26;99803.47;6271001;22;20029;-84
2022/03/14 09:57:13;;;;;;;507.73;433.73;;;;;;;10.50;42.12;99833.38;6270649;22;20030;-84
2022/03/14 09:59:40;;;;;;;501.60;447.30;;;;;;;10.63;41.96;99824.00;6270659;22;20336;-83
2022/03/14 10:12:13;;;;;;;506.27;458.53;;;;;;;11.12;41.31;99845.34;6280474;22;20027;-93
2022/03/14 10:14:39;;;;;;;524.23;477.07;;;;;;;11.33;41.44;99840.16;6269286;22;20012;-89
2022/03/14 10:17:04;;;;;;;533.70;487.37;;;;;;;11.39;40.65;99842.69;6283567;22;20077;-88
2022/03/14 10:19:34;;;;;;;530.93;485.67;;;;;;;11.55;40.37;99849.47;6255193;22;20000;-87
2022/03/14 10:22:18;;;;;;;528.93;484.63;;;;;;;11.28;40.70;99829.03;6288019;22;20583;-89
2022/03/14 10:24:46;;;;;;;537.50;492.97;;;;;;;11.38;40.80;99840.97;6285091;22;20008;-89
2022/03/14 10:27:12;;;;;;;554.27;508.97;;;;;;;11.42;39.80;99850.38;6287314;22;20058;-88
2022/03/14 10:29:49;;;;;;;548.17;503.07;;;;;;;11.44;40.25;99858.94;6227219;22;20023;-89
2022/03/14 10:32:32;;;;;;;544.33;500.70;;;;;;;11.37;39.54;99860.66;6311046;22;19995;-89
2022/03/14 10:35:04;;;;;;;543.30;500.33;;;;;;;11.40;40.06;99867.53;6311374;22;20431;-89
2022/03/14 10:37:31;;;;;;;532.83;491.00;;;;;;;11.30;40.49;99837.56;6312465;22;19999;-90
2022/03/14 10:40:06;;;;;;;544.63;504.73;;;;;;;11.55;39.74;99864.91;6309892;22;20011;-89
2022/03/14 10:42:43;;;;;;;529.10;491.30;;;;;;;11.41;40.18;99871.81;6284738;22;20023;-90
2022/03/14 10:45:16;;;;;;;561.13;522.33;;;;;;;11.50;39.88;99843.50;6304094;22;20000;-89
2022/03/14 10:47:57;;;;;;;553.40;513.60;;;;;;;11.77;40.48;99846.00;6334309;22;20009;-91
2022/03/14 10:50:30;;;;;;;566.47;526.03;;;;;;;11.88;39.32;99853.69;6334423;22;19999;-89
2022/03/14 10:53:12;;;;;;;564.57;524.37;;;;;;;11.90;39.59;99859.66;6328687;22;20068;-89
2022/03/14 10:55:47;;;;;;;545.57;506.23;;;;;;;12.10;39.32;99854.41;6315235;22;20069;-87
2022/03/14 10:58:12;;;;;;;;;;;;;;;12.30;39.09;99875.75;6317813;22;20003;-89
2022/03/14 11:00:44;;;;;;;554.37;515.70;;;;;;;12.28;39.30;99859.44;6313492;22;19907;-87
2022/03/14 11:03:10;;;;;;;559.93;523.40;;;;;;;12.18;39.08;99888.63;6287955;22;19995;-87
2022/03/14 11:05:45;;;;;;;557.87;521.30;;;;;;;12.11;39.24;99867.25;6317845;22;20003;-86
2022/03/14 11:08:41;;;;;;;555.63;520.90;;;;;;;12.24;38.70;99870.63;6328925;22;20050;-90
2022/03/14 11:11:10;;;;;;;567.80;532.03;;;;;;;12.41;39.00;99875.66;6333660;22;19999;-87
2022/03/14 11:13:43;;;;;;;551.50;518.73;;;;;;;12.33;39.41;99870.56;6316574;22;20015;-88
2022/03/14 11:16:29;;;;;;;537.42;505.65;;;;;;;12.29;38.98;99861.16;6311556;22;20000;-87
2022/03/14 11:18:55;;;;;;;541.28;508.65;;;;;;;12.44;39.81;99875.63;6311853;22;20101;-88